»·PEaware :: SKY525 KPRC-KHII

SKY525 :: KPRC-KHII

FLIGHT INFORMATION

Flight Status: Arrived
Operator:
Sky High Charters
More flights by this operator :: More flights under this callsign
Pilot: Kim B. (19519)
Aircraft: GULFSTREAM 690 COMMANDER 840/900
(AC90)
More flights by this aircraft type
Origin: KPRC Love
United States
Destination: KHII Lake Havasu City
United States
More flights between these airports :: More routes between these airports
Route: +WNSKI1 MUMTE V12 EED
File this flight plan on PilotEdge
Remarks:
Altitude:
(Current/Filed)
14,000ft
Speed:
(Current/Filed)
240kts
Departed: 31-Jan-19 04:55 PM
Arrived: 31-Jan-19 06:10 PM
Distance/Time
Traveled:
96nm/1:15
Distance/Time
To Go:
Arrived

Flight Plot

Page will automatically refresh every two minutes.


Map Options




Map Legend


Flown Route
Filed Route
Departure Airport
Arrival Airport
Navaid (VOR, NDB)
Fix

Horizontal Profiles

Position Reports

Time Latitude Longitude Heading Altitude Ground
Speed
31-Jan-19 16:22 34.647923 -112.421146 311 5023ft 0kts
31-Jan-19 16:23 34.647923 -112.421146 311 5023ft 0kts
31-Jan-19 16:24 34.647923 -112.421146 311 5023ft 0kts
31-Jan-19 16:25 34.647923 -112.421146 311 5023ft 0kts
31-Jan-19 16:26 34.647923 -112.421146 311 5023ft 0kts
31-Jan-19 16:27 34.647923 -112.421146 311 5023ft 0kts
31-Jan-19 16:28 34.647923 -112.421146 311 5023ft 0kts
31-Jan-19 16:35 34.647923 -112.421146 0 5023ft 0kts
31-Jan-19 16:36 34.647923 -112.421146 311 5023ft 0kts
31-Jan-19 16:37 34.647923 -112.421146 311 5023ft 0kts
31-Jan-19 16:38 34.647923 -112.421146 311 5023ft 0kts
31-Jan-19 16:39 34.647923 -112.421146 311 5023ft 0kts
31-Jan-19 16:40 34.647923 -112.421146 311 5023ft 0kts
31-Jan-19 16:42 34.647923 -112.421146 311 5023ft 0kts
31-Jan-19 16:43 34.647923 -112.421146 311 5023ft 0kts
31-Jan-19 16:44 34.647923 -112.421146 311 5023ft 0kts
31-Jan-19 16:45 34.647923 -112.421146 311 5023ft 0kts
31-Jan-19 16:46 34.647923 -112.421146 311 5023ft 0kts
31-Jan-19 16:47 34.647923 -112.421146 311 5023ft 0kts
31-Jan-19 16:48 34.648852 -112.422588 316 5016ft 15kts
31-Jan-19 16:49 34.651760 -112.420625 41 5005ft 9kts
31-Jan-19 16:50 34.655289 -112.416887 41 4985ft 21kts
31-Jan-19 16:51 34.659387 -112.411865 40 4954ft 29kts
31-Jan-19 16:52 34.661261 -112.410195 311 4946ft 0kts
31-Jan-19 16:53 34.661261 -112.410195 311 4946ft 0kts
31-Jan-19 16:54 34.661388 -112.410377 310 4946ft 10kts
31-Jan-19 16:55 34.656299 -112.417427 221 4988ft 129kts
31-Jan-19 16:56 34.628480 -112.453830 206 7819ft 150kts
31-Jan-19 16:57 34.599537 -112.421598 112 10567ft 168kts
31-Jan-19 16:57 34.610936 -112.371325 53 10563ft 251kts
31-Jan-19 17:01 34.647926 -112.421150 311 5023ft 0kts
31-Jan-19 17:02 34.647926 -112.421150 311 5023ft 0kts
31-Jan-19 17:03 34.648064 -112.421396 300 5021ft 16kts
31-Jan-19 17:05 34.656927 -112.415116 42 4972ft 51kts
31-Jan-19 17:06 34.661134 -112.410140 334 4946ft 0kts
31-Jan-19 17:06 34.661379 -112.410403 313 4946ft 10kts
31-Jan-19 17:07 34.652116 -112.422279 224 5509ft 134kts
31-Jan-19 17:08 34.658157 -112.471392 253 8359ft 157kts
31-Jan-19 17:09 34.647323 -112.523692 249 11139ft 166kts
31-Jan-19 17:10 34.637773 -112.491505 54 13061ft 212kts
31-Jan-19 17:19 34.647926 -112.421150 311 5023ft 0kts
31-Jan-19 17:20 34.647926 -112.421150 311 5023ft 0kts
31-Jan-19 17:21 34.648572 -112.422246 315 5018ft 32kts
31-Jan-19 17:22 34.654832 -112.417376 42 4988ft 40kts
31-Jan-19 17:23 34.661170 -112.410112 318 4946ft 0kts
31-Jan-19 17:24 34.661170 -112.410112 318 4946ft 0kts
31-Jan-19 17:25 34.661778 -112.410883 309 4945ft 24kts
31-Jan-19 17:26 34.644946 -112.428908 218 5554ft 159kts
31-Jan-19 17:27 34.624546 -112.411908 66 8815ft 154kts
31-Jan-19 17:28 34.618664 -112.366298 131 11223ft 148kts
31-Jan-19 17:29 34.591784 -112.327282 135 13216ft 154kts
31-Jan-19 17:30 34.560556 -112.283688 134 14018ft 211kts
31-Jan-19 17:31 34.509145 -112.288049 227 14007ft 234kts
31-Jan-19 17:32 34.474122 -112.356458 243 14000ft 245kts
31-Jan-19 17:33 34.455006 -112.436501 259 13999ft 250kts
31-Jan-19 17:34 34.454694 -112.521545 274 13999ft 254kts
31-Jan-19 17:35 34.474114 -112.604234 291 13999ft 259kts
31-Jan-19 17:36 34.512759 -112.678385 307 14000ft 263kts
31-Jan-19 17:37 34.568090 -112.736774 324 14000ft 267kts
31-Jan-19 17:38 34.636047 -112.773615 342 14000ft 270kts
31-Jan-19 17:39 34.710171 -112.787810 332 13991ft 269kts
31-Jan-19 17:40 34.717890 -112.863889 265 14003ft 252kts
31-Jan-19 17:41 34.720449 -112.949154 269 14001ft 253kts
31-Jan-19 17:42 34.723288 -113.028116 268 14000ft 254kts
31-Jan-19 17:43 34.726262 -113.113104 268 13989ft 254kts
31-Jan-19 17:44 34.729224 -113.199193 268 13972ft 254kts
31-Jan-19 17:45 34.732114 -113.284906 268 13956ft 254kts
31-Jan-19 17:46 34.734836 -113.367327 268 13957ft 254kts
31-Jan-19 17:47 34.737558 -113.451584 268 14002ft 253kts
31-Jan-19 17:48 34.740255 -113.536779 268 14073ft 253kts
31-Jan-19 17:49 34.742902 -113.622330 268 14073ft 253kts
31-Jan-19 17:50 34.745493 -113.707627 268 14074ft 253kts
31-Jan-19 17:51 34.748026 -113.793322 268 14069ft 254kts
31-Jan-19 17:52 34.750523 -113.879769 268 14047ft 254kts
31-Jan-19 17:53 34.752934 -113.965640 268 14027ft 254kts
31-Jan-19 17:54 34.755291 -114.051467 268 14014ft 254kts
31-Jan-19 17:55 34.757643 -114.139569 268 13017ft 254kts
31-Jan-19 17:56 34.759860 -114.224914 268 12030ft 251kts
31-Jan-19 17:57 34.761996 -114.310077 268 10777ft 256kts
31-Jan-19 17:58 34.764084 -114.394519 269 9030ft 245kts
31-Jan-19 17:59 34.766255 -114.477036 276 7320ft 244kts
31-Jan-19 18:00 34.821914 -114.514913 346 5618ft 243kts
31-Jan-19 18:01 34.883772 -114.530033 27 5005ft 203kts
31-Jan-19 18:02 34.870039 -114.490239 171 5027ft 184kts
31-Jan-19 18:03 34.819058 -114.482337 171 5019ft 184kts
31-Jan-19 18:04 34.768159 -114.474445 171 5018ft 184kts
31-Jan-19 18:05 34.716881 -114.469787 167 5017ft 184kts
31-Jan-19 18:06 34.672682 -114.438355 146 4519ft 206kts
31-Jan-19 18:07 34.622191 -114.398256 147 2488ft 211kts
31-Jan-19 18:08 34.579424 -114.364090 149 754ft 124kts
31-Jan-19 18:09 34.574346 -114.361276 239 754ft 0kts
31-Jan-19 18:10 34.574294 -114.362594 252 746ft 2kts
31-Jan-19 18:11 34.574243 -114.362712 237 745ft 0kts
31-Jan-19 18:12 34.574243 -114.362712 237 745ft 0kts
31-Jan-19 18:13 34.574243 -114.362712 237 745ft 0kts
31-Jan-19 18:14 34.574243 -114.362712 237 745ft 0kts
31-Jan-19 18:15 34.574243 -114.362712 237 745ft 0kts
31-Jan-19 18:16 34.574243 -114.362712 237 745ft 0kts
31-Jan-19 18:17 34.574243 -114.362712 237 745ft 0kts
31-Jan-19 18:18 34.574243 -114.362712 237 745ft 0kts
31-Jan-19 18:19 34.574243 -114.362712 237 745ft 0kts
31-Jan-19 18:20 34.574243 -114.362712 237 745ft 0kts
31-Jan-19 18:21 34.574243 -114.362712 237 745ft 0kts
31-Jan-19 18:22 34.574243 -114.362712 237 745ft 0kts
31-Jan-19 18:23 34.574243 -114.362712 237 745ft 0kts
31-Jan-19 18:24 34.574243 -114.362712 237 745ft 0kts

Navigation Log

Ident Type
Flight plan parsing failed, navigation log unavailable